sensor_id;sensor_type;location;lat;lon;timestamp;P1;durP1;ratioP1;P2;durP2;ratioP2
5939;SDS011;2995;-31.998;115.906;2023-01-19T00:01:50;10.03;;;1.50;;
5939;SDS011;2995;-31.998;115.906;2023-01-19T00:04:21;4.20;;;1.27;;
5939;SDS011;2995;-31.998;115.906;2023-01-19T00:06:53;6.00;;;1.53;;
5939;SDS011;2995;-31.998;115.906;2023-01-19T00:09:24;3.50;;;1.10;;
5939;SDS011;2995;-31.998;115.906;2023-01-19T00:11:59;5.30;;;1.37;;
5939;SDS011;2995;-31.998;115.906;2023-01-19T00:14:31;8.10;;;1.20;;
5939;SDS011;2995;-31.998;115.906;2023-01-19T00:17:04;2.30;;;1.10;;
5939;SDS011;2995;-31.998;115.906;2023-01-19T00:19:36;3.47;;;1.10;;
5939;SDS011;2995;-31.998;115.906;2023-01-19T00:22:07;3.07;;;1.17;;
5939;SDS011;2995;-31.998;115.906;2023-01-19T00:24:39;6.20;;;1.10;;
5939;SDS011;2995;-31.998;115.906;2023-01-19T00:27:10;3.60;;;1.20;;
5939;SDS011;2995;-31.998;115.906;2023-01-19T00:29:41;3.90;;;1.50;;
5939;SDS011;2995;-31.998;115.906;2023-01-19T00:32:14;4.67;;;1.10;;
5939;SDS011;2995;-31.998;115.906;2023-01-19T00:34:46;3.17;;;1.10;;
5939;SDS011;2995;-31.998;115.906;2023-01-19T00:37:17;4.90;;;1.10;;
5939;SDS011;2995;-31.998;115.906;2023-01-19T00:39:48;3.40;;;1.10;;
5939;SDS011;2995;-31.998;115.906;2023-01-19T00:42:20;4.57;;;1.70;;
5939;SDS011;2995;-31.998;115.906;2023-01-19T00:45:10;5.23;;;1.43;;
5939;SDS011;2995;-31.998;115.906;2023-01-19T00:47:44;6.60;;;1.57;;
5939;SDS011;2995;-31.998;115.906;2023-01-19T00:50:19;3.30;;;1.23;;
5939;SDS011;2995;-31.998;115.906;2023-01-19T00:52:51;3.90;;;1.20;;
5939;SDS011;2995;-31.998;115.906;2023-01-19T00:55:23;3.30;;;1.00;;
5939;SDS011;2995;-31.998;115.906;2023-01-19T00:57:54;4.40;;;1.13;;
5939;SDS011;2995;-31.998;115.906;2023-01-19T01:00:26;6.70;;;1.17;;
5939;SDS011;2995;-31.998;115.906;2023-01-19T01:03:00;4.17;;;1.23;;
5939;SDS011;2995;-31.998;115.906;2023-01-19T01:05:31;6.47;;;1.63;;
5939;SDS011;2995;-31.998;115.906;2023-01-19T01:08:02;5.57;;;1.30;;
5939;SDS011;2995;-31.998;115.906;2023-01-19T01:10:34;5.27;;;1.37;;
5939;SDS011;2995;-31.998;115.906;2023-01-19T01:13:05;2.17;;;1.00;;
5939;SDS011;2995;-31.998;115.906;2023-01-19T01:15:36;5.07;;;1.23;;
5939;SDS011;2995;-31.998;115.906;2023-01-19T01:18:09;4.17;;;1.20;;
5939;SDS011;2995;-31.998;115.906;2023-01-19T01:20:40;3.10;;;1.30;;
5939;SDS011;2995;-31.998;115.906;2023-01-19T01:23:11;7.53;;;1.20;;
5939;SDS011;2995;-31.998;115.906;2023-01-19T01:25:48;3.83;;;1.23;;
5939;SDS011;2995;-31.998;115.906;2023-01-19T01:28:19;3.80;;;1.17;;
5939;SDS011;2995;-31.998;115.906;2023-01-19T01:30:52;3.00;;;1.50;;
5939;SDS011;2995;-31.998;115.906;2023-01-19T01:33:26;1.83;;;1.00;;
5939;SDS011;2995;-31.998;115.906;2023-01-19T01:35:57;1.70;;;1.00;;
5939;SDS011;2995;-31.998;115.906;2023-01-19T01:38:28;5.73;;;1.27;;
5939;SDS011;2995;-31.998;115.906;2023-01-19T01:40:59;4.23;;;1.40;;
5939;SDS011;2995;-31.998;115.906;2023-01-19T01:43:41;3.17;;;1.20;;
5939;SDS011;2995;-31.998;115.906;2023-01-19T01:46:14;2.90;;;1.20;;
5939;SDS011;2995;-31.998;115.906;2023-01-19T01:48:48;5.97;;;1.17;;
5939;SDS011;2995;-31.998;115.906;2023-01-19T01:51:24;4.13;;;1.10;;
5939;SDS011;2995;-31.998;115.906;2023-01-19T01:54:04;3.60;;;1.40;;
5939;SDS011;2995;-31.998;115.906;2023-01-19T01:56:40;5.37;;;1.30;;
5939;SDS011;2995;-31.998;115.906;2023-01-19T01:59:15;4.87;;;1.23;;
5939;SDS011;2995;-31.998;115.906;2023-01-19T02:01:51;4.13;;;1.37;;
5939;SDS011;2995;-31.998;115.906;2023-01-19T02:04:42;2.10;;;1.10;;
5939;SDS011;2995;-31.998;115.906;2023-01-19T02:07:16;6.20;;;1.50;;
5939;SDS011;2995;-31.998;115.906;2023-01-19T02:10:08;2.77;;;1.10;;
5939;SDS011;2995;-31.998;115.906;2023-01-19T02:12:55;3.10;;;1.17;;
5939;SDS011;2995;-31.998;115.906;2023-01-19T02:15:47;2.60;;;1.13;;
5939;SDS011;2995;-31.998;115.906;2023-01-19T02:18:19;3.37;;;1.13;;
5939;SDS011;2995;-31.998;115.906;2023-01-19T02:20:55;3.47;;;1.10;;
5939;SDS011;2995;-31.998;115.906;2023-01-19T02:23:38;5.10;;;1.60;;
5939;SDS011;2995;-31.998;115.906;2023-01-19T02:26:13;3.03;;;1.23;;
5939;SDS011;2995;-31.998;115.906;2023-01-19T02:28:47;4.97;;;1.27;;
5939;SDS011;2995;-31.998;115.906;2023-01-19T02:31:22;5.67;;;1.40;;
5939;SDS011;2995;-31.998;115.906;2023-01-19T02:33:54;3.00;;;1.10;;
5939;SDS011;2995;-31.998;115.906;2023-01-19T02:36:27;4.33;;;1.20;;
5939;SDS011;2995;-31.998;115.906;2023-01-19T02:39:01;4.37;;;1.27;;
5939;SDS011;2995;-31.998;115.906;2023-01-19T02:41:35;5.20;;;1.57;;
5939;SDS011;2995;-31.998;115.906;2023-01-19T02:44:09;5.40;;;1.30;;
5939;SDS011;2995;-31.998;115.906;2023-01-19T02:46:42;2.60;;;1.13;;
5939;SDS011;2995;-31.998;115.906;2023-01-19T02:49:13;5.67;;;1.40;;
5939;SDS011;2995;-31.998;115.906;2023-01-19T02:51:45;3.90;;;1.33;;
5939;SDS011;2995;-31.998;115.906;2023-01-19T02:54:34;6.10;;;1.43;;
5939;SDS011;2995;-31.998;115.906;2023-01-19T02:57:29;2.93;;;1.20;;
5939;SDS011;2995;-31.998;115.906;2023-01-19T03:00:15;3.30;;;1.20;;
5939;SDS011;2995;-31.998;115.906;2023-01-19T03:02:53;2.80;;;1.27;;
5939;SDS011;2995;-31.998;115.906;2023-01-19T03:05:43;4.20;;;1.40;;
5939;SDS011;2995;-31.998;115.906;2023-01-19T03:08:28;4.30;;;1.40;;
5939;SDS011;2995;-31.998;115.906;2023-01-19T03:11:11;3.80;;;1.10;;
5939;SDS011;2995;-31.998;115.906;2023-01-19T03:13:44;1.80;;;1.10;;
5939;SDS011;2995;-31.998;115.906;2023-01-19T03:16:20;4.93;;;1.27;;
5939;SDS011;2995;-31.998;115.906;2023-01-19T03:18:53;5.20;;;1.57;;
5939;SDS011;2995;-31.998;115.906;2023-01-19T03:21:28;3.40;;;1.37;;
5939;SDS011;2995;-31.998;115.906;2023-01-19T03:24:03;6.37;;;1.40;;
5939;SDS011;2995;-31.998;115.906;2023-01-19T03:26:40;4.10;;;1.60;;
5939;SDS011;2995;-31.998;115.906;2023-01-19T03:29:14;5.03;;;1.20;;
5939;SDS011;2995;-31.998;115.906;2023-01-19T03:31:47;4.17;;;1.37;;
5939;SDS011;2995;-31.998;115.906;2023-01-19T03:34:21;4.07;;;1.47;;
5939;SDS011;2995;-31.998;115.906;2023-01-19T03:36:54;4.27;;;1.37;;
5939;SDS011;2995;-31.998;115.906;2023-01-19T03:39:29;6.03;;;1.10;;
5939;SDS011;2995;-31.998;115.906;2023-01-19T03:42:03;8.60;;;1.40;;
5939;SDS011;2995;-31.998;115.906;2023-01-19T03:44:36;10.77;;;1.87;;
5939;SDS011;2995;-31.998;115.906;2023-01-19T03:47:10;5.57;;;1.33;;
5939;SDS011;2995;-31.998;115.906;2023-01-19T03:49:42;3.50;;;1.00;;
5939;SDS011;2995;-31.998;115.906;2023-01-19T03:52:15;2.23;;;1.00;;
5939;SDS011;2995;-31.998;115.906;2023-01-19T03:54:54;3.50;;;1.20;;
5939;SDS011;2995;-31.998;115.906;2023-01-19T03:57:27;5.73;;;1.17;;
5939;SDS011;2995;-31.998;115.906;2023-01-19T03:59:58;3.63;;;1.40;;
5939;SDS011;2995;-31.998;115.906;2023-01-19T04:02:29;6.87;;;1.70;;
5939;SDS011;2995;-31.998;115.906;2023-01-19T04:05:01;4.53;;;1.40;;
5939;SDS011;2995;-31.998;115.906;2023-01-19T04:07:32;4.03;;;1.20;;
5939;SDS011;2995;-31.998;115.906;2023-01-19T04:10:03;2.47;;;1.20;;
5939;SDS011;2995;-31.998;115.906;2023-01-19T04:12:39;6.00;;;1.40;;
5939;SDS011;2995;-31.998;115.906;2023-01-19T04:15:11;4.33;;;1.70;;
5939;SDS011;2995;-31.998;115.906;2023-01-19T04:17:43;4.50;;;1.20;;
5939;SDS011;2995;-31.998;115.906;2023-01-19T04:20:15;3.30;;;1.30;;
5939;SDS011;2995;-31.998;115.906;2023-01-19T04:22:47;3.33;;;1.20;;
5939;SDS011;2995;-31.998;115.906;2023-01-19T04:25:18;3.67;;;1.00;;
5939;SDS011;2995;-31.998;115.906;2023-01-19T04:27:52;8.43;;;1.50;;
5939;SDS011;2995;-31.998;115.906;2023-01-19T04:30:25;3.47;;;1.23;;
5939;SDS011;2995;-31.998;115.906;2023-01-19T04:32:57;1.70;;;1.10;;
5939;SDS011;2995;-31.998;115.906;2023-01-19T04:35:29;5.60;;;1.13;;
5939;SDS011;2995;-31.998;115.906;2023-01-19T04:38:01;3.23;;;1.20;;
5939;SDS011;2995;-31.998;115.906;2023-01-19T04:40:32;3.00;;;1.20;;
5939;SDS011;2995;-31.998;115.906;2023-01-19T04:43:05;3.63;;;1.47;;
5939;SDS011;2995;-31.998;115.906;2023-01-19T04:45:36;3.37;;;1.00;;
5939;SDS011;2995;-31.998;115.906;2023-01-19T04:48:10;3.40;;;1.27;;
5939;SDS011;2995;-31.998;115.906;2023-01-19T04:50:41;5.90;;;1.40;;
5939;SDS011;2995;-31.998;115.906;2023-01-19T04:53:12;6.23;;;1.10;;
5939;SDS011;2995;-31.998;115.906;2023-01-19T04:55:44;4.00;;;1.23;;
5939;SDS011;2995;-31.998;115.906;2023-01-19T04:58:17;4.37;;;1.60;;
5939;SDS011;2995;-31.998;115.906;2023-01-19T05:00:48;5.40;;;1.50;;
5939;SDS011;2995;-31.998;115.906;2023-01-19T05:03:19;2.67;;;1.10;;
5939;SDS011;2995;-31.998;115.906;2023-01-19T05:05:51;2.10;;;1.00;;
5939;SDS011;2995;-31.998;115.906;2023-01-19T05:08:22;2.70;;;1.20;;
5939;SDS011;2995;-31.998;115.906;2023-01-19T05:10:53;2.53;;;1.00;;
5939;SDS011;2995;-31.998;115.906;2023-01-19T05:13:26;3.00;;;1.20;;
5939;SDS011;2995;-31.998;115.906;2023-01-19T05:15:58;3.90;;;1.20;;
5939;SDS011;2995;-31.998;115.906;2023-01-19T05:18:30;3.73;;;1.47;;
5939;SDS011;2995;-31.998;115.906;2023-01-19T05:21:02;5.40;;;1.57;;
5939;SDS011;2995;-31.998;115.906;2023-01-19T05:23:33;4.07;;;1.60;;
5939;SDS011;2995;-31.998;115.906;2023-01-19T05:26:04;2.70;;;1.20;;
5939;SDS011;2995;-31.998;115.906;2023-01-19T05:28:38;3.30;;;1.37;;
5939;SDS011;2995;-31.998;115.906;2023-01-19T05:31:09;5.43;;;1.37;;
5939;SDS011;2995;-31.998;115.906;2023-01-19T05:33:40;3.00;;;1.30;;
5939;SDS011;2995;-31.998;115.906;2023-01-19T05:36:11;5.87;;;1.63;;
5939;SDS011;2995;-31.998;115.906;2023-01-19T05:38:42;2.67;;;1.20;;
5939;SDS011;2995;-31.998;115.906;2023-01-19T05:41:14;3.20;;;1.13;;
5939;SDS011;2995;-31.998;115.906;2023-01-19T05:43:47;3.13;;;1.40;;
5939;SDS011;2995;-31.998;115.906;2023-01-19T05:46:18;5.00;;;1.47;;
5939;SDS011;2995;-31.998;115.906;2023-01-19T05:48:49;4.00;;;1.30;;
5939;SDS011;2995;-31.998;115.906;2023-01-19T05:51:21;2.60;;;1.43;;
5939;SDS011;2995;-31.998;115.906;2023-01-19T05:53:52;9.67;;;1.70;;
5939;SDS011;2995;-31.998;115.906;2023-01-19T05:56:23;3.73;;;1.30;;
5939;SDS011;2995;-31.998;115.906;2023-01-19T05:58:56;4.27;;;1.30;;
5939;SDS011;2995;-31.998;115.906;2023-01-19T06:01:27;4.47;;;1.00;;
5939;SDS011;2995;-31.998;115.906;2023-01-19T06:04:00;5.80;;;1.40;;
5939;SDS011;2995;-31.998;115.906;2023-01-19T06:06:31;3.10;;;1.20;;
5939;SDS011;2995;-31.998;115.906;2023-01-19T06:09:02;8.33;;;1.40;;
5939;SDS011;2995;-31.998;115.906;2023-01-19T06:11:33;4.13;;;1.10;;
5939;SDS011;2995;-31.998;115.906;2023-01-19T06:14:08;4.20;;;1.23;;
5939;SDS011;2995;-31.998;115.906;2023-01-19T06:16:39;2.90;;;1.10;;
5939;SDS011;2995;-31.998;115.906;2023-01-19T06:19:10;2.43;;;1.10;;
5939;SDS011;2995;-31.998;115.906;2023-01-19T06:21:41;3.13;;;1.13;;
5939;SDS011;2995;-31.998;115.906;2023-01-19T06:24:15;3.03;;;1.10;;
5939;SDS011;2995;-31.998;115.906;2023-01-19T06:26:46;4.00;;;1.50;;
5939;SDS011;2995;-31.998;115.906;2023-01-19T06:29:20;3.97;;;1.43;;
5939;SDS011;2995;-31.998;115.906;2023-01-19T06:31:51;5.73;;;1.20;;
5939;SDS011;2995;-31.998;115.906;2023-01-19T06:34:22;4.13;;;1.10;;
5939;SDS011;2995;-31.998;115.906;2023-01-19T06:36:54;4.73;;;1.10;;
5939;SDS011;2995;-31.998;115.906;2023-01-19T06:39:25;3.53;;;1.17;;
5939;SDS011;2995;-31.998;115.906;2023-01-19T06:41:56;5.47;;;1.00;;
5939;SDS011;2995;-31.998;115.906;2023-01-19T06:44:29;2.90;;;1.23;;
5939;SDS011;2995;-31.998;115.906;2023-01-19T06:47:00;4.60;;;1.20;;
5939;SDS011;2995;-31.998;115.906;2023-01-19T06:49:32;2.63;;;1.00;;
5939;SDS011;2995;-31.998;115.906;2023-01-19T06:52:03;5.00;;;1.40;;
5939;SDS011;2995;-31.998;115.906;2023-01-19T06:54:34;3.30;;;1.20;;
5939;SDS011;2995;-31.998;115.906;2023-01-19T06:57:05;3.30;;;1.03;;
5939;SDS011;2995;-31.998;115.906;2023-01-19T06:59:39;2.43;;;1.00;;
5939;SDS011;2995;-31.998;115.906;2023-01-19T07:02:10;3.17;;;1.33;;
5939;SDS011;2995;-31.998;115.906;2023-01-19T07:04:45;3.27;;;1.23;;
5939;SDS011;2995;-31.998;115.906;2023-01-19T07:07:16;4.73;;;1.23;;
5939;SDS011;2995;-31.998;115.906;2023-01-19T07:09:48;2.50;;;1.03;;
5939;SDS011;2995;-31.998;115.906;2023-01-19T07:12:19;4.30;;;1.33;;
5939;SDS011;2995;-31.998;115.906;2023-01-19T07:14:53;1.80;;;1.20;;
5939;SDS011;2995;-31.998;115.906;2023-01-19T07:17:24;3.73;;;1.10;;
5939;SDS011;2995;-31.998;115.906;2023-01-19T07:19:55;3.60;;;1.23;;
5939;SDS011;2995;-31.998;115.906;2023-01-19T07:22:27;6.83;;;1.53;;
5939;SDS011;2995;-31.998;115.906;2023-01-19T07:24:58;1.63;;;0.93;;
5939;SDS011;2995;-31.998;115.906;2023-01-19T07:27:30;4.27;;;1.23;;
5939;SDS011;2995;-31.998;115.906;2023-01-19T07:30:03;5.20;;;1.13;;
5939;SDS011;2995;-31.998;115.906;2023-01-19T07:32:35;3.10;;;1.27;;
5939;SDS011;2995;-31.998;115.906;2023-01-19T07:35:08;2.43;;;1.20;;
5939;SDS011;2995;-31.998;115.906;2023-01-19T07:37:39;3.30;;;1.23;;
5939;SDS011;2995;-31.998;115.906;2023-01-19T07:40:11;5.70;;;1.13;;
5939;SDS011;2995;-31.998;115.906;2023-01-19T07:42:45;6.07;;;1.00;;
5939;SDS011;2995;-31.998;115.906;2023-01-19T07:45:19;5.50;;;1.37;;
5939;SDS011;2995;-31.998;115.906;2023-01-19T07:47:50;3.27;;;1.30;;
5939;SDS011;2995;-31.998;115.906;2023-01-19T07:50:22;4.20;;;1.20;;
5939;SDS011;2995;-31.998;115.906;2023-01-19T07:52:54;5.13;;;1.50;;
5939;SDS011;2995;-31.998;115.906;2023-01-19T07:55:26;2.73;;;1.10;;
5939;SDS011;2995;-31.998;115.906;2023-01-19T07:57:57;4.90;;;1.50;;
5939;SDS011;2995;-31.998;115.906;2023-01-19T08:00:32;4.93;;;1.20;;
5939;SDS011;2995;-31.998;115.906;2023-01-19T08:03:04;4.00;;;1.30;;
5939;SDS011;2995;-31.998;115.906;2023-01-19T08:05:36;3.40;;;1.30;;
5939;SDS011;2995;-31.998;115.906;2023-01-19T08:08:07;7.40;;;1.47;;
5939;SDS011;2995;-31.998;115.906;2023-01-19T08:10:39;5.03;;;1.53;;
5939;SDS011;2995;-31.998;115.906;2023-01-19T08:13:10;5.57;;;1.50;;
5939;SDS011;2995;-31.998;115.906;2023-01-19T08:15:43;4.90;;;1.33;;
5939;SDS011;2995;-31.998;115.906;2023-01-19T08:18:18;1.83;;;1.07;;
5939;SDS011;2995;-31.998;115.906;2023-01-19T08:20:49;5.20;;;1.40;;
5939;SDS011;2995;-31.998;115.906;2023-01-19T08:23:20;3.93;;;1.40;;
5939;SDS011;2995;-31.998;115.906;2023-01-19T08:25:53;3.30;;;1.40;;
5939;SDS011;2995;-31.998;115.906;2023-01-19T08:28:24;5.10;;;1.30;;
5939;SDS011;2995;-31.998;115.906;2023-01-19T08:30:58;4.27;;;1.43;;
5939;SDS011;2995;-31.998;115.906;2023-01-19T08:33:29;3.10;;;1.50;;
5939;SDS011;2995;-31.998;115.906;2023-01-19T08:36:00;4.83;;;1.30;;
5939;SDS011;2995;-31.998;115.906;2023-01-19T08:38:31;4.13;;;1.20;;
5939;SDS011;2995;-31.998;115.906;2023-01-19T08:41:04;5.60;;;1.40;;
5939;SDS011;2995;-31.998;115.906;2023-01-19T08:43:35;2.70;;;1.20;;
5939;SDS011;2995;-31.998;115.906;2023-01-19T08:46:09;5.73;;;1.17;;
5939;SDS011;2995;-31.998;115.906;2023-01-19T08:48:42;5.77;;;1.20;;
5939;SDS011;2995;-31.998;115.906;2023-01-19T08:51:13;7.10;;;1.20;;
5939;SDS011;2995;-31.998;115.906;2023-01-19T08:53:45;3.53;;;1.33;;
5939;SDS011;2995;-31.998;115.906;2023-01-19T08:56:16;7.87;;;1.40;;
5939;SDS011;2995;-31.998;115.906;2023-01-19T08:58:47;4.33;;;1.50;;
5939;SDS011;2995;-31.998;115.906;2023-01-19T09:01:20;5.33;;;1.60;;
5939;SDS011;2995;-31.998;115.906;2023-01-19T09:03:52;5.70;;;1.50;;
5939;SDS011;2995;-31.998;115.906;2023-01-19T09:06:23;3.27;;;1.30;;
5939;SDS011;2995;-31.998;115.906;2023-01-19T09:08:54;3.83;;;1.30;;
5939;SDS011;2995;-31.998;115.906;2023-01-19T09:11:25;6.70;;;1.57;;
5939;SDS011;2995;-31.998;115.906;2023-01-19T09:13:57;13.60;;;1.70;;
5939;SDS011;2995;-31.998;115.906;2023-01-19T09:16:30;4.43;;;1.50;;
5939;SDS011;2995;-31.998;115.906;2023-01-19T09:19:02;5.27;;;1.57;;
5939;SDS011;2995;-31.998;115.906;2023-01-19T09:21:33;7.10;;;1.53;;
5939;SDS011;2995;-31.998;115.906;2023-01-19T09:24:05;5.47;;;1.37;;
5939;SDS011;2995;-31.998;115.906;2023-01-19T09:26:37;6.70;;;1.37;;
5939;SDS011;2995;-31.998;115.906;2023-01-19T09:29:08;2.57;;;1.20;;
5939;SDS011;2995;-31.998;115.906;2023-01-19T09:31:41;6.37;;;1.60;;
5939;SDS011;2995;-31.998;115.906;2023-01-19T09:34:12;8.40;;;1.70;;
5939;SDS011;2995;-31.998;115.906;2023-01-19T09:36:44;6.90;;;1.57;;
5939;SDS011;2995;-31.998;115.906;2023-01-19T09:39:16;9.13;;;1.40;;
5939;SDS011;2995;-31.998;115.906;2023-01-19T09:41:48;7.07;;;1.50;;
5939;SDS011;2995;-31.998;115.906;2023-01-19T09:44:26;5.17;;;1.60;;
5939;SDS011;2995;-31.998;115.906;2023-01-19T09:47:02;3.83;;;1.40;;
5939;SDS011;2995;-31.998;115.906;2023-01-19T09:49:44;7.50;;;1.50;;
5939;SDS011;2995;-31.998;115.906;2023-01-19T09:52:19;4.03;;;1.73;;
5939;SDS011;2995;-31.998;115.906;2023-01-19T09:54:51;3.20;;;1.20;;
5939;SDS011;2995;-31.998;115.906;2023-01-19T09:57:23;6.03;;;1.50;;
5939;SDS011;2995;-31.998;115.906;2023-01-19T09:59:57;3.10;;;1.47;;
5939;SDS011;2995;-31.998;115.906;2023-01-19T10:02:32;4.00;;;1.60;;
5939;SDS011;2995;-31.998;115.906;2023-01-19T10:05:10;5.23;;;1.60;;
5939;SDS011;2995;-31.998;115.906;2023-01-19T10:07:53;5.40;;;2.10;;
5939;SDS011;2995;-31.998;115.906;2023-01-19T10:10:31;5.70;;;1.63;;
5939;SDS011;2995;-31.998;115.906;2023-01-19T10:13:10;3.33;;;1.30;;
5939;SDS011;2995;-31.998;115.906;2023-01-19T10:15:52;6.10;;;1.80;;
5939;SDS011;2995;-31.998;115.906;2023-01-19T10:18:38;5.67;;;1.37;;
5939;SDS011;2995;-31.998;115.906;2023-01-19T10:21:16;5.83;;;1.60;;
5939;SDS011;2995;-31.998;115.906;2023-01-19T10:23:50;4.63;;;1.60;;
5939;SDS011;2995;-31.998;115.906;2023-01-19T10:26:23;5.60;;;1.50;;
5939;SDS011;2995;-31.998;115.906;2023-01-19T10:29:01;9.33;;;1.90;;
5939;SDS011;2995;-31.998;115.906;2023-01-19T10:31:34;3.20;;;1.50;;
5939;SDS011;2995;-31.998;115.906;2023-01-19T10:34:10;6.53;;;1.40;;
5939;SDS011;2995;-31.998;115.906;2023-01-19T10:36:43;5.73;;;2.00;;
5939;SDS011;2995;-31.998;115.906;2023-01-19T10:39:17;4.70;;;1.67;;
5939;SDS011;2995;-31.998;115.906;2023-01-19T10:41:49;5.53;;;1.90;;
5939;SDS011;2995;-31.998;115.906;2023-01-19T10:44:25;6.23;;;1.67;;
5939;SDS011;2995;-31.998;115.906;2023-01-19T10:46:57;6.00;;;1.87;;
5939;SDS011;2995;-31.998;115.906;2023-01-19T10:49:35;12.80;;;1.90;;
5939;SDS011;2995;-31.998;115.906;2023-01-19T10:52:18;3.67;;;1.70;;
5939;SDS011;2995;-31.998;115.906;2023-01-19T10:54:54;3.87;;;1.43;;
5939;SDS011;2995;-31.998;115.906;2023-01-19T10:57:27;6.20;;;1.80;;
5939;SDS011;2995;-31.998;115.906;2023-01-19T11:00:02;5.30;;;1.40;;
5939;SDS011;2995;-31.998;115.906;2023-01-19T11:02:34;7.57;;;1.63;;
5939;SDS011;2995;-31.998;115.906;2023-01-19T11:05:23;9.30;;;2.20;;
5939;SDS011;2995;-31.998;115.906;2023-01-19T11:07:56;4.37;;;1.60;;
5939;SDS011;2995;-31.998;115.906;2023-01-19T11:10:27;10.03;;;1.80;;
5939;SDS011;2995;-31.998;115.906;2023-01-19T11:12:59;8.07;;;1.80;;
5939;SDS011;2995;-31.998;115.906;2023-01-19T11:15:40;28.07;;;3.37;;
5939;SDS011;2995;-31.998;115.906;2023-01-19T11:18:20;20.47;;;3.70;;
5939;SDS011;2995;-31.998;115.906;2023-01-19T11:20:57;13.90;;;3.00;;
5939;SDS011;2995;-31.998;115.906;2023-01-19T11:23:32;16.90;;;2.97;;
5939;SDS011;2995;-31.998;115.906;2023-01-19T11:26:08;17.23;;;3.37;;
5939;SDS011;2995;-31.998;115.906;2023-01-19T11:28:45;15.13;;;3.23;;
5939;SDS011;2995;-31.998;115.906;2023-01-19T11:31:30;8.73;;;2.40;;
5939;SDS011;2995;-31.998;115.906;2023-01-19T11:34:03;9.33;;;2.43;;
5939;SDS011;2995;-31.998;115.906;2023-01-19T11:36:57;14.57;;;2.93;;
5939;SDS011;2995;-31.998;115.906;2023-01-19T11:39:30;13.87;;;3.30;;
5939;SDS011;2995;-31.998;115.906;2023-01-19T11:42:13;12.37;;;2.80;;
5939;SDS011;2995;-31.998;115.906;2023-01-19T11:44:46;12.00;;;3.03;;
5939;SDS011;2995;-31.998;115.906;2023-01-19T11:47:24;6.67;;;2.07;;
5939;SDS011;2995;-31.998;115.906;2023-01-19T11:50:00;10.17;;;2.40;;
5939;SDS011;2995;-31.998;115.906;2023-01-19T11:52:38;8.17;;;2.50;;
5939;SDS011;2995;-31.998;115.906;2023-01-19T11:55:16;11.70;;;2.67;;
5939;SDS011;2995;-31.998;115.906;2023-01-19T11:57:52;10.90;;;3.43;;
5939;SDS011;2995;-31.998;115.906;2023-01-19T12:00:25;8.30;;;2.37;;
5939;SDS011;2995;-31.998;115.906;2023-01-19T12:03:02;14.13;;;2.70;;
5939;SDS011;2995;-31.998;115.906;2023-01-19T12:05:38;6.80;;;1.97;;
5939;SDS011;2995;-31.998;115.906;2023-01-19T12:08:17;7.07;;;2.10;;
5939;SDS011;2995;-31.998;115.906;2023-01-19T12:10:52;7.03;;;2.10;;
5939;SDS011;2995;-31.998;115.906;2023-01-19T12:13:25;10.17;;;2.70;;
5939;SDS011;2995;-31.998;115.906;2023-01-19T12:15:58;8.67;;;2.20;;
5939;SDS011;2995;-31.998;115.906;2023-01-19T12:18:34;8.50;;;2.40;;
5939;SDS011;2995;-31.998;115.906;2023-01-19T12:21:09;8.27;;;2.70;;
5939;SDS011;2995;-31.998;115.906;2023-01-19T12:23:45;9.80;;;2.63;;
5939;SDS011;2995;-31.998;115.906;2023-01-19T12:26:28;9.97;;;2.30;;
5939;SDS011;2995;-31.998;115.906;2023-01-19T12:29:09;7.43;;;2.23;;
5939;SDS011;2995;-31.998;115.906;2023-01-19T12:31:41;9.70;;;2.60;;
5939;SDS011;2995;-31.998;115.906;2023-01-19T12:34:28;4.93;;;2.10;;
5939;SDS011;2995;-31.998;115.906;2023-01-19T12:40:16;7.13;;;2.87;;
5939;SDS011;2995;-31.998;115.906;2023-01-19T12:42:55;7.03;;;2.43;;
5939;SDS011;2995;-31.998;115.906;2023-01-19T12:45:29;9.23;;;2.17;;
5939;SDS011;2995;-31.998;115.906;2023-01-19T12:48:03;8.17;;;2.17;;
5939;SDS011;2995;-31.998;115.906;2023-01-19T12:50:51;7.67;;;2.30;;
5939;SDS011;2995;-31.998;115.906;2023-01-19T12:53:22;7.53;;;2.20;;
5939;SDS011;2995;-31.998;115.906;2023-01-19T12:56:01;13.53;;;2.67;;
5939;SDS011;2995;-31.998;115.906;2023-01-19T12:58:37;5.90;;;2.20;;
5939;SDS011;2995;-31.998;115.906;2023-01-19T13:01:16;13.57;;;2.23;;
5939;SDS011;2995;-31.998;115.906;2023-01-19T13:03:59;7.73;;;2.30;;
5939;SDS011;2995;-31.998;115.906;2023-01-19T13:09:38;5.60;;;2.10;;
5939;SDS011;2995;-31.998;115.906;2023-01-19T13:12:21;8.50;;;2.13;;
5939;SDS011;2995;-31.998;115.906;2023-01-19T13:18:02;8.30;;;2.73;;
5939;SDS011;2995;-31.998;115.906;2023-01-19T13:20:41;8.57;;;2.53;;
5939;SDS011;2995;-31.998;115.906;2023-01-19T13:23:18;10.20;;;2.37;;
5939;SDS011;2995;-31.998;115.906;2023-01-19T13:25:52;6.50;;;2.90;;
5939;SDS011;2995;-31.998;115.906;2023-01-19T13:28:44;6.70;;;2.57;;
5939;SDS011;2995;-31.998;115.906;2023-01-19T13:31:18;6.73;;;2.10;;
5939;SDS011;2995;-31.998;115.906;2023-01-19T13:33:50;5.17;;;2.23;;
5939;SDS011;2995;-31.998;115.906;2023-01-19T13:36:23;9.13;;;2.40;;
5939;SDS011;2995;-31.998;115.906;2023-01-19T13:38:58;6.20;;;2.20;;
5939;SDS011;2995;-31.998;115.906;2023-01-19T13:41:34;7.17;;;1.83;;
5939;SDS011;2995;-31.998;115.906;2023-01-19T13:44:11;3.60;;;1.60;;
5939;SDS011;2995;-31.998;115.906;2023-01-19T13:46:46;8.17;;;1.50;;
5939;SDS011;2995;-31.998;115.906;2023-01-19T13:49:18;6.33;;;1.70;;
5939;SDS011;2995;-31.998;115.906;2023-01-19T13:52:05;3.60;;;1.80;;
5939;SDS011;2995;-31.998;115.906;2023-01-19T13:54:48;3.87;;;1.50;;
5939;SDS011;2995;-31.998;115.906;2023-01-19T13:57:23;7.63;;;1.50;;
5939;SDS011;2995;-31.998;115.906;2023-01-19T14:00:13;4.73;;;1.90;;
5939;SDS011;2995;-31.998;115.906;2023-01-19T14:02:57;5.90;;;1.50;;
5939;SDS011;2995;-31.998;115.906;2023-01-19T14:05:30;4.53;;;1.57;;
5939;SDS011;2995;-31.998;115.906;2023-01-19T14:08:03;4.03;;;1.30;;
5939;SDS011;2995;-31.998;115.906;2023-01-19T14:10:41;4.20;;;1.20;;
5939;SDS011;2995;-31.998;115.906;2023-01-19T14:13:14;4.23;;;1.30;;
5939;SDS011;2995;-31.998;115.906;2023-01-19T14:15:48;2.83;;;1.40;;
5939;SDS011;2995;-31.998;115.906;2023-01-19T14:18:25;4.60;;;1.20;;
5939;SDS011;2995;-31.998;115.906;2023-01-19T14:20:58;5.00;;;1.17;;
5939;SDS011;2995;-31.998;115.906;2023-01-19T14:23:36;3.20;;;1.10;;
5939;SDS011;2995;-31.998;115.906;2023-01-19T14:29:14;5.07;;;1.20;;
5939;SDS011;2995;-31.998;115.906;2023-01-19T14:31:49;4.40;;;1.13;;
5939;SDS011;2995;-31.998;115.906;2023-01-19T14:34:33;5.50;;;1.40;;
5939;SDS011;2995;-31.998;115.906;2023-01-19T14:37:13;3.10;;;1.10;;
5939;SDS011;2995;-31.998;115.906;2023-01-19T14:39:47;3.53;;;0.93;;
5939;SDS011;2995;-31.998;115.906;2023-01-19T14:42:21;8.00;;;1.30;;
5939;SDS011;2995;-31.998;115.906;2023-01-19T14:44:54;1.93;;;0.93;;
5939;SDS011;2995;-31.998;115.906;2023-01-19T14:47:32;3.03;;;0.83;;
5939;SDS011;2995;-31.998;115.906;2023-01-19T14:50:07;2.00;;;1.07;;
5939;SDS011;2995;-31.998;115.906;2023-01-19T14:52:49;3.50;;;1.40;;
5939;SDS011;2995;-31.998;115.906;2023-01-19T14:55:24;5.63;;;1.30;;
5939;SDS011;2995;-31.998;115.906;2023-01-19T14:58:00;4.00;;;1.30;;
5939;SDS011;2995;-31.998;115.906;2023-01-19T15:00:36;4.23;;;1.23;;
5939;SDS011;2995;-31.998;115.906;2023-01-19T15:03:09;12.93;;;1.40;;
5939;SDS011;2995;-31.998;115.906;2023-01-19T15:05:41;2.70;;;1.20;;
5939;SDS011;2995;-31.998;115.906;2023-01-19T15:08:15;3.00;;;1.20;;
5939;SDS011;2995;-31.998;115.906;2023-01-19T15:10:48;1.80;;;1.00;;
5939;SDS011;2995;-31.998;115.906;2023-01-19T15:13:19;8.40;;;1.30;;
5939;SDS011;2995;-31.998;115.906;2023-01-19T15:15:52;2.53;;;1.13;;
5939;SDS011;2995;-31.998;115.906;2023-01-19T15:18:43;3.03;;;1.03;;
5939;SDS011;2995;-31.998;115.906;2023-01-19T15:21:14;2.07;;;0.90;;
5939;SDS011;2995;-31.998;115.906;2023-01-19T15:23:48;3.87;;;1.20;;
5939;SDS011;2995;-31.998;115.906;2023-01-19T15:26:21;2.57;;;1.20;;
5939;SDS011;2995;-31.998;115.906;2023-01-19T15:28:54;3.23;;;1.20;;